Time;durP1;ratioP1;P1;durP2;ratioP2;P2;SDS_P1;SDS_P2;PMS_P1;PMS_P2;Temp;Humidity;BMP_temperature;BMP_pressure;BME280_temperature;BME280_humidity;BME280_pressure;Samples;Min_cycle;Max_cycle;Signal;HPM_P1;HPM_P2
2021/01/06 00:01:48;;;;;;;53.72;30.42;;;3.90;77.50;;;;;;5096909;28;20028;-42
2021/01/06 00:04:14;;;;;;;63.08;32.63;;;3.90;77.50;;;;;;5095884;28;20032;-42
2021/01/06 00:06:40;;;;;;;54.05;28.65;;;3.90;77.60;;;;;;5096981;28;20048;-41
2021/01/06 00:09:06;;;;;;;49.05;28.15;;;3.90;77.70;;;;;;5095396;28;20024;-41
2021/01/06 00:11:37;;;;;;;52.00;28.48;;;3.90;77.70;;;;;;5096539;28;20043;-41
2021/01/06 00:14:06;;;;;;;48.53;27.08;;;3.90;77.60;;;;;;5095882;28;20032;-41
2021/01/06 00:16:32;;;;;;;49.53;28.08;;;3.90;77.60;;;;;;5096436;28;20036;-41
2021/01/06 00:18:58;;;;;;;56.58;30.55;;;3.90;77.70;;;;;;5095700;28;20081;-42
2021/01/06 00:21:24;;;;;;;51.47;28.30;;;3.90;77.60;;;;;;5096496;28;20059;-41
2021/01/06 00:23:49;;;;;;;57.85;30.42;;;4.00;77.60;;;;;;5095772;28;20031;-42
2021/01/06 00:26:15;;;;;;;50.53;28.60;;;4.00;77.50;;;;;;5096226;28;20031;-41
2021/01/06 00:28:41;;;;;;;56.60;31.17;;;4.00;78.00;;;;;;5095764;28;20177;-41
2021/01/06 00:31:07;;;;;;;63.20;31.48;;;4.00;77.50;;;;;;5095164;28;20032;-41
2021/01/06 00:33:35;;;;;;;56.22;28.88;;;4.00;77.60;;;;;;5095573;28;20024;-42
2021/01/06 00:36:02;;;;;;;60.13;30.17;;;4.00;77.60;;;;;;5095836;28;20104;-41
2021/01/06 00:38:29;;;;;;;52.72;29.02;;;4.00;77.60;;;;;;5095483;28;20042;-41
2021/01/06 00:40:56;;;;;;;54.65;29.65;;;4.00;77.40;;;;;;5095900;28;20056;-41
2021/01/06 00:43:22;;;;;;;52.97;27.17;;;4.00;77.30;;;;;;5095527;28;20026;-41
2021/01/06 00:45:47;;;;;;;53.17;28.77;;;4.00;77.30;;;;;;5095127;28;20130;-41
2021/01/06 00:48:14;;;;;;;53.78;27.98;;;4.00;77.20;;;;;;5095895;28;20341;-42
2021/01/06 00:50:41;;;;;;;57.92;29.00;;;4.00;77.20;;;;;;5095768;28;20043;-41
2021/01/06 00:53:13;;;;;;;47.03;26.13;;;4.00;77.20;;;;;;5095317;28;20426;-41
2021/01/06 00:55:39;;;;;;;59.42;30.52;;;4.00;77.90;;;;;;5095519;28;20034;-41
2021/01/06 00:58:04;;;;;;;50.22;27.25;;;4.00;77.40;;;;;;5095467;28;20421;-42
2021/01/06 01:00:31;;;;;;;52.10;29.38;;;4.00;77.50;;;;;;5095083;28;20036;-41
2021/01/06 01:02:57;;;;;;;53.00;28.55;;;4.00;77.40;;;;;;5095523;28;20041;-41
2021/01/06 01:05:26;;;;;;;56.97;30.63;;;4.00;77.50;;;;;;5094888;28;20123;-41
2021/01/06 01:07:51;;;;;;;51.85;26.67;;;4.00;77.50;;;;;;5094317;28;20039;-41
2021/01/06 01:10:28;;;;;;;55.17;30.02;;;4.00;77.50;;;;;;5095125;28;20032;-41
2021/01/06 01:12:54;;;;;;;57.28;29.50;;;4.10;78.10;;;;;;5094846;28;20417;-41
2021/01/06 01:15:22;;;;;;;56.13;30.27;;;4.10;77.50;;;;;;5093880;28;20040;-41
2021/01/06 01:17:48;;;;;;;51.38;27.02;;;4.00;77.40;;;;;;5095938;28;20035;-42
2021/01/06 01:20:15;;;;;;;54.05;26.83;;;4.10;77.40;;;;;;5094951;28;20048;-41
2021/01/06 01:22:40;;;;;;;53.60;29.02;;;4.00;77.30;;;;;;5094926;28;20479;-41
2021/01/06 01:25:07;;;;;;;54.03;28.70;;;4.10;77.20;;;;;;5094793;28;20024;-41
2021/01/06 01:27:32;;;;;;;55.40;28.88;;;4.10;77.10;;;;;;5095642;28;20399;-42
2021/01/06 01:29:58;;;;;;;51.58;27.08;;;4.00;76.90;;;;;;5094721;28;20035;-41
2021/01/06 01:32:24;;;;;;;53.58;27.50;;;4.00;77.10;;;;;;5095330;28;20321;-42
2021/01/06 01:34:49;;;;;;;53.83;27.98;;;4.00;77.20;;;;;;5095153;28;20078;-41
2021/01/06 01:37:15;;;;;;;48.83;27.15;;;4.00;77.20;;;;;;5095341;28;20028;-42
2021/01/06 01:39:40;;;;;;;51.33;28.27;;;4.00;77.40;;;;;;5094552;28;20034;-41
2021/01/06 01:42:07;;;;;;;52.58;29.63;;;4.00;77.30;;;;;;5096558;28;20069;-42
2021/01/06 01:44:32;;;;;;;53.03;27.85;;;4.00;77.40;;;;;;5098287;28;20069;-41
2021/01/06 01:47:07;;;;;;;52.10;27.50;;;4.00;77.30;;;;;;5098702;28;20040;-43
2021/01/06 01:49:41;;;;;;;45.10;26.80;;;4.00;77.40;;;;;;5098835;28;20035;-41
2021/01/06 01:52:20;;;;;;;54.15;28.25;;;4.00;77.30;;;;;;5099359;28;20086;-41
2021/01/06 01:54:46;;;;;;;58.78;28.23;;;4.00;77.10;;;;;;5098664;28;20080;-41
2021/01/06 01:57:17;;;;;;;47.97;26.08;;;4.00;77.10;;;;;;5098907;28;20059;-42
2021/01/06 01:59:51;;;;;;;57.67;29.08;;;4.00;77.20;;;;;;5098315;28;20111;-41
2021/01/06 02:02:53;;;;;;;52.88;28.38;;;4.00;77.30;;;;;;5098669;28;20452;-41
2021/01/06 02:05:27;;;;;;;50.47;28.33;;;4.00;77.20;;;;;;5098388;28;20096;-41
2021/01/06 02:08:03;;;;;;;54.63;28.27;;;4.00;77.20;;;;;;5098612;28;20409;-41
2021/01/06 02:10:33;;;;;;;47.08;24.88;;;4.00;77.30;;;;;;5098099;28;20164;-42
2021/01/06 02:13:14;;;;;;;50.35;27.40;;;4.00;77.30;;;;;;5098275;28;20400;-41
2021/01/06 02:15:44;;;;;;;47.88;22.98;;;4.00;77.30;;;;;;5098407;28;20052;-41
2021/01/06 02:18:11;;;;;;;57.72;28.05;;;4.00;77.40;;;;;;5098237;28;20024;-41
2021/01/06 02:20:37;;;;;;;49.28;26.50;;;4.00;77.40;;;;;;5097776;28;20087;-41
2021/01/06 02:23:03;;;;;;;52.30;26.77;;;4.00;77.10;;;;;;5097998;28;20020;-42
2021/01/06 02:25:30;;;;;;;58.47;28.55;;;4.00;77.20;;;;;;5097503;28;20088;-41
2021/01/06 02:27:59;;;;;;;57.95;27.60;;;4.00;77.30;;;;;;5097787;28;20036;-41
2021/01/06 02:30:25;;;;;;;50.60;24.52;;;4.00;77.30;;;;;;5097923;28;20028;-41
2021/01/06 02:32:52;;;;;;;52.13;26.67;;;4.00;77.30;;;;;;5097983;28;20042;-41
2021/01/06 02:35:19;;;;;;;57.63;28.17;;;4.00;77.40;;;;;;5098155;28;20135;-41
2021/01/06 02:37:45;;;;;;;61.28;28.83;;;4.00;77.40;;;;;;5097681;28;20032;-42
2021/01/06 02:40:12;;;;;;;60.95;29.83;;;4.00;77.40;;;;;;5097674;28;20039;-40
2021/01/06 02:42:39;;;;;;;56.30;28.60;;;4.00;77.40;;;;;;5098121;28;20337;-40
2021/01/06 02:45:08;;;;;;;56.58;28.05;;;4.00;77.50;;;;;;5097034;28;20043;-39
2021/01/06 02:47:35;;;;;;;60.03;27.50;;;4.00;77.40;;;;;;5097888;28;20432;-40
2021/01/06 02:50:01;;;;;;;58.30;28.63;;;4.00;77.30;;;;;;5097190;28;20119;-40
2021/01/06 02:52:38;;;;;;;64.47;29.88;;;4.00;77.50;;;;;;5096125;28;20322;-40
2021/01/06 02:55:10;;;;;;;60.35;26.92;;;4.10;78.20;;;;;;5096318;28;20311;-39
2021/01/06 02:57:37;;;;;;;57.80;25.00;;;4.10;77.60;;;;;;5097482;28;20016;-40
2021/01/06 03:00:06;;;;;;;57.38;27.95;;;4.10;77.60;;;;;;5097039;28;20066;-39
2021/01/06 03:02:32;;;;;;;62.22;29.10;;;4.10;78.10;;;;;;5097599;28;20047;-40
2021/01/06 03:05:19;;;;;;;58.92;28.35;;;4.10;77.50;;;;;;5097329;28;20121;-40
2021/01/06 03:07:46;;;;;;;58.00;26.45;;;4.10;77.30;;;;;;5097324;28;20032;-39
2021/01/06 03:10:16;;;;;;;61.30;29.10;;;4.10;77.30;;;;;;5096557;28;20028;-40
2021/01/06 03:12:42;;;;;;;66.15;29.58;;;4.10;77.40;;;;;;5096926;28;20020;-40
2021/01/06 03:15:08;;;;;;;65.97;29.38;;;4.10;77.40;;;;;;5096750;28;20035;-41
2021/01/06 03:17:34;;;;;;;67.15;30.27;;;4.10;77.50;;;;;;5097181;28;20344;-40
2021/01/06 03:20:14;;;;;;;62.80;28.27;;;4.10;77.50;;;;;;5096371;28;20044;-40
2021/01/06 03:22:44;;;;;;;66.88;29.98;;;4.10;77.30;;;;;;5096887;28;20024;-40
2021/01/06 03:25:16;;;;;;;67.75;28.88;;;4.10;77.40;;;;;;5096667;28;20417;-40
2021/01/06 03:27:44;;;;;;;65.15;27.95;;;4.10;77.30;;;;;;5096885;28;20032;-40
2021/01/06 03:30:15;;;;;;;74.18;30.17;;;4.00;77.40;;;;;;5096158;28;20028;-40
2021/01/06 03:33:01;;;;;;;70.93;30.20;;;4.00;77.40;;;;;;5097109;28;20024;-40
2021/01/06 03:35:50;;;;;;;64.50;30.27;;;4.00;77.40;;;;;;5097028;28;20035;-40
2021/01/06 03:38:16;;;;;;;66.97;27.73;;;4.00;77.50;;;;;;5096520;28;20111;-40
2021/01/06 03:40:44;;;;;;;75.90;29.42;;;4.00;77.60;;;;;;5097162;28;20119;-40
2021/01/06 03:43:10;;;;;;;72.82;27.10;;;4.00;77.70;;;;;;5096552;28;20103;-40
2021/01/06 03:45:40;;;;;;;72.80;30.55;;;4.00;77.80;;;;;;5096059;28;20047;-40
2021/01/06 03:48:27;;;;;;;80.32;30.80;;;4.00;77.70;;;;;;5097138;28;20032;-40
2021/01/06 03:50:57;;;;;;;74.88;31.63;;;4.00;77.80;;;;;;5096640;28;20051;-40
2021/01/06 03:53:38;;;;;;;67.30;28.08;;;4.00;77.80;;;;;;5096428;28;20421;-40
2021/01/06 03:56:11;;;;;;;81.00;33.17;;;4.00;77.80;;;;;;5096553;28;20386;-40
2021/01/06 03:58:55;;;;;;;70.88;30.75;;;4.00;78.00;;;;;;5095832;28;20047;-40
2021/01/06 04:01:42;;;;;;;59.40;26.55;;;4.00;78.10;;;;;;5096833;28;20123;-40
2021/01/06 04:04:16;;;;;;;67.18;29.02;;;4.00;78.00;;;;;;5096083;28;20012;-39
2021/01/06 04:06:45;;;;;;;76.72;30.42;;;4.00;78.10;;;;;;5096733;28;20040;-39
2021/01/06 04:09:20;;;;;;;81.07;31.83;;;4.00;78.20;;;;;;5095643;28;20030;-40
2021/01/06 04:11:53;;;;;;;75.82;32.78;;;4.00;78.10;;;;;;5096711;28;20036;-39
2021/01/06 04:14:19;;;;;;;75.07;30.48;;;4.00;78.00;;;;;;5095588;28;20061;-40
2021/01/06 04:16:44;;;;;;;85.03;33.17;;;4.00;78.00;;;;;;5096562;28;20028;-39
2021/01/06 04:19:10;;;;;;;78.03;29.88;;;4.00;78.20;;;;;;5095623;28;20321;-40
2021/01/06 04:21:36;;;;;;;70.75;27.85;;;4.00;78.30;;;;;;5096144;28;20039;-40
2021/01/06 04:24:02;;;;;;;68.28;30.20;;;4.00;78.30;;;;;;5094124;28;20231;-41
2021/01/06 04:26:27;;;;;;;79.40;30.98;;;4.00;78.30;;;;;;5095526;28;20047;-39
2021/01/06 04:28:53;;;;;;;79.00;30.33;;;4.00;78.30;;;;;;5095549;28;20036;-41
2021/01/06 04:31:20;;;;;;;86.07;32.38;;;4.00;78.20;;;;;;5095900;28;20040;-39
2021/01/06 04:33:47;;;;;;;79.15;32.30;;;4.00;78.20;;;;;;5095798;28;20089;-40
2021/01/06 04:36:39;;;;;;;83.57;32.50;;;4.00;78.40;;;;;;5095427;28;20020;-40
2021/01/06 04:39:05;;;;;;;83.88;33.28;;;4.00;78.30;;;;;;5092229;28;20028;-39
2021/01/06 04:41:38;;;;;;;84.57;32.10;;;4.00;78.40;;;;;;5096254;28;20032;-39
2021/01/06 04:44:15;;;;;;;79.00;31.45;;;4.00;78.60;;;;;;5095244;28;20023;-39
2021/01/06 04:47:19;;;;;;;77.00;32.10;;;4.00;78.60;;;;;;5096001;28;20444;-39
2021/01/06 04:50:22;;;;;;;87.03;32.97;;;4.00;78.80;;;;;;5095946;28;20020;-39
2021/01/06 04:53:09;;;;;;;78.85;31.83;;;4.00;78.80;;;;;;5096057;28;20063;-40
2021/01/06 04:55:53;;;;;;;90.40;35.85;;;4.10;78.80;;;;;;5094891;28;20034;-40
2021/01/06 04:59:00;;;;;;;96.82;36.05;;;4.10;78.90;;;;;;5094786;28;20024;-41
2021/01/06 05:01:52;;;;;;;90.90;33.17;;;4.10;78.90;;;;;;5074008;28;20047;-40
2021/01/06 05:04:48;;;;;;;86.13;33.30;;;4.10;78.80;;;;;;5066429;28;20051;-39
2021/01/06 05:07:32;;;;;;;99.00;35.85;;;4.10;78.80;;;;;;5095753;28;20055;-39
2021/01/06 05:10:30;;;;;;;85.72;32.90;;;4.10;78.70;;;;;;5095115;28;20027;-39
2021/01/06 05:13:02;;;;;;;85.88;31.90;;;4.10;78.70;;;;;;5095971;28;20115;-40
2021/01/06 05:15:44;;;;;;;92.70;34.85;;;4.10;78.90;;;;;;5094894;28;20063;-41
2021/01/06 05:18:10;;;;;;;83.07;32.88;;;4.00;78.90;;;;;;5098314;28;20448;-40
2021/01/06 05:20:36;;;;;;;86.07;32.83;;;4.00;79.00;;;;;;5098500;28;20361;-40
2021/01/06 05:23:05;;;;;;;90.63;33.65;;;4.10;79.10;;;;;;5099614;28;20028;-40
2021/01/06 05:25:31;;;;;;;76.25;32.38;;;4.10;79.00;;;;;;5099467;28;20040;-39
2021/01/06 05:27:58;;;;;;;63.60;27.02;;;4.10;79.10;;;;;;5098611;28;20047;-40
2021/01/06 05:30:27;;;;;;;77.20;30.40;;;4.10;79.00;;;;;;5098648;28;20085;-40
2021/01/06 05:33:04;;;;;;;98.00;36.38;;;4.10;79.20;;;;;;5097430;28;20032;-39
2021/01/06 05:35:38;;;;;;;77.50;31.88;;;4.10;79.20;;;;;;5097169;28;20126;-40
2021/01/06 05:38:04;;;;;;;77.05;29.75;;;4.10;79.20;;;;;;5098824;28;20027;-39
2021/01/06 05:40:33;;;;;;;76.25;31.10;;;4.10;79.10;;;;;;5098952;28;20082;-39
2021/01/06 05:43:28;;;;;;;71.85;30.52;;;4.00;79.20;;;;;;5098229;28;20024;-40
2021/01/06 05:45:57;;;;;;;90.68;35.40;;;4.00;79.10;;;;;;5090683;28;20108;-40
2021/01/06 05:48:37;;;;;;;75.38;30.45;;;4.00;79.40;;;;;;5097188;28;20035;-40
2021/01/06 05:51:08;;;;;;;65.30;28.03;;;4.10;79.50;;;;;;5097836;28;20299;-39
2021/01/06 05:53:53;;;;;;;95.25;36.25;;;4.10;79.60;;;;;;5096844;28;20020;-39
2021/01/06 05:56:36;;;;;;;89.13;34.53;;;4.10;79.60;;;;;;5098324;28;20132;-40
2021/01/06 05:59:36;;;;;;;86.80;34.78;;;4.10;79.50;;;;;;5097156;28;20235;-39
2021/01/06 06:02:04;;;;;;;95.28;34.03;;;4.10;79.60;;;;;;5098307;28;20036;-40
2021/01/06 06:04:52;;;;;;;64.88;27.23;;;4.10;79.60;;;;;;5097728;28;20334;-39
2021/01/06 06:08:02;;;;;;;87.88;32.42;;;4.10;79.40;;;;;;5097450;28;20314;-41
2021/01/06 06:10:46;;;;;;;94.75;33.55;;;4.10;79.40;;;;;;5065747;28;20040;-40
2021/01/06 06:13:20;;;;;;;72.95;27.98;;;4.10;79.50;;;;;;5096219;28;20380;-40
2021/01/06 06:15:49;;;;;;;90.75;33.15;;;4.10;79.70;;;;;;5094944;28;20036;-41
2021/01/06 06:18:18;;;;;;;88.18;31.70;;;4.00;79.90;;;;;;5097885;28;20028;-42
2021/01/06 06:21:01;;;;;;;81.13;31.88;;;4.10;80.00;;;;;;5097487;28;20052;-40
2021/01/06 06:24:01;;;;;;;77.45;30.88;;;4.10;80.00;;;;;;5098119;28;20421;-42
2021/01/06 06:26:59;;;;;;;90.53;32.90;;;4.10;80.10;;;;;;5098500;28;20086;-41
2021/01/06 06:29:54;;;;;;;97.45;35.63;;;4.20;80.20;;;;;;5094904;28;20024;-40
2021/01/06 06:32:28;;;;;;;104.55;41.13;;;4.20;80.30;;;;;;5096678;28;20314;-42
2021/01/06 06:35:07;;;;;;;96.65;37.58;;;4.20;80.40;;;;;;5096435;28;20032;-41
2021/01/06 06:37:33;;;;;;;102.13;35.40;;;4.30;80.40;;;;;;5097698;28;20024;-42
2021/01/06 06:39:59;;;;;;;90.28;34.88;;;4.30;80.40;;;;;;5097418;28;20028;-41
2021/01/06 06:42:35;;;;;;;97.68;36.25;;;4.40;80.60;;;;;;5097215;28;20318;-43
2021/01/06 06:45:26;;;;;;;86.32;34.67;;;4.40;80.40;;;;;;5109581;28;20031;-41
2021/01/06 06:47:52;;;;;;;78.55;32.63;;;4.40;80.30;;;;;;5095567;28;20040;-41
2021/01/06 06:50:44;;;;;;;107.60;34.63;;;4.50;80.30;;;;;;5107184;28;20081;-41
2021/01/06 06:53:27;;;;;;;98.70;36.75;;;4.50;80.00;;;;;;5108981;28;20024;-41
2021/01/06 06:56:14;;;;;;;76.97;33.40;;;4.60;80.00;;;;;;5117048;28;20042;-41
2021/01/06 06:58:58;;;;;;;123.13;40.35;;;4.60;80.00;;;;;;5115827;28;20032;-41
2021/01/06 07:01:33;;;;;;;93.75;36.03;;;4.60;80.00;;;;;;5099638;28;20035;-41
2021/01/06 07:04:25;;;;;;;112.70;42.65;;;4.60;79.90;;;;;;5116450;28;20065;-42
2021/01/06 07:07:02;;;;;;;84.00;42.88;;;4.70;80.10;;;;;;5092798;28;20155;-43
2021/01/06 07:09:36;;;;;;;108.93;51.03;;;4.70;80.10;;;;;;5090453;28;20020;-43
2021/01/06 07:12:08;;;;;;;109.78;48.75;;;4.70;80.20;;;;;;5076654;28;20039;-42
2021/01/06 07:14:47;;;;;;;102.03;42.75;;;4.80;80.30;;;;;;5077355;28;20059;-42
2021/01/06 07:17:36;;;;;;;114.35;42.40;;;4.90;80.20;;;;;;5077355;28;20078;-42
2021/01/06 07:20:12;;;;;;;116.53;38.95;;;4.90;80.00;;;;;;5090432;28;20520;-45
2021/01/06 07:22:38;;;;;;;136.43;45.45;;;4.90;79.80;;;;;;5110585;28;20443;-42
2021/01/06 07:25:20;;;;;;;105.90;38.20;;;4.90;79.90;;;;;;5115648;28;20028;-44
2021/01/06 07:27:54;;;;;;;130.85;42.22;;;5.00;79.90;;;;;;5112821;28;20168;-42
2021/01/06 07:30:30;;;;;;;127.82;41.83;;;5.00;79.90;;;;;;5108810;28;20324;-44
2021/01/06 07:32:57;;;;;;;90.93;35.25;;;5.00;79.90;;;;;;5116500;28;20023;-43
2021/01/06 07:35:25;;;;;;;119.63;37.80;;;5.00;79.90;;;;;;5095039;28;20032;-43
2021/01/06 07:38:02;;;;;;;96.57;38.05;;;5.10;79.80;;;;;;5094825;28;20031;-42
2021/01/06 07:40:35;;;;;;;131.02;35.30;;;5.10;79.70;;;;;;5095606;28;20475;-43
2021/01/06 07:43:07;;;;;;;158.70;34.25;;;5.10;79.50;;;;;;5101277;28;20035;-43
2021/01/06 07:45:37;;;;;;;118.68;34.33;;;5.10;79.30;;;;;;5102106;28;20033;-44
2021/01/06 07:48:06;;;;;;;117.85;32.45;;;5.10;79.10;;;;;;5100939;28;20036;-43
2021/01/06 07:50:34;;;;;;;137.02;36.65;;;5.10;79.20;;;;;;5073477;28;20070;-42
2021/01/06 07:53:09;;;;;;;117.88;42.72;;;5.10;79.30;;;;;;5074783;28;20100;-42
2021/01/06 07:55:40;;;;;;;169.82;39.35;;;5.10;79.50;;;;;;5088514;28;20107;-42
2021/01/06 07:58:17;;;;;;;127.95;38.72;;;5.10;79.50;;;;;;5089365;28;20024;-47
2021/01/06 08:00:58;;;;;;;97.22;33.22;;;5.20;79.50;;;;;;5096214;28;20377;-42
2021/01/06 08:03:52;;;;;;;105.50;34.10;;;5.20;79.50;;;;;;5095456;28;20128;-44
2021/01/06 08:06:20;;;;;;;127.85;46.70;;;5.20;79.40;;;;;;5093817;28;20032;-43
2021/01/06 08:08:52;;;;;;;215.75;81.18;;;5.30;79.50;;;;;;5097620;28;20027;-44
2021/01/06 08:11:21;;;;;;;174.50;66.90;;;5.30;79.40;;;;;;5095605;28;20032;-43
2021/01/06 08:13:47;;;;;;;127.15;43.10;;;5.30;79.30;;;;;;5095652;28;20024;-42
2021/01/06 08:16:15;;;;;;;185.73;45.13;;;5.30;79.20;;;;;;5096068;28;20032;-41
2021/01/06 08:18:58;;;;;;;115.28;40.22;;;5.30;79.10;;;;;;5095378;28;20035;-42
2021/01/06 08:21:36;;;;;;;137.27;39.85;;;5.40;79.10;;;;;;5095756;28;20175;-39
2021/01/06 08:24:22;;;;;;;127.78;37.05;;;5.40;79.00;;;;;;5095271;28;20440;-40
2021/01/06 08:26:53;;;;;;;152.65;47.28;;;5.30;78.80;;;;;;5094802;28;20108;-39
2021/01/06 08:29:22;;;;;;;191.40;44.90;;;5.30;78.70;;;;;;5094749;28;20031;-39
2021/01/06 08:32:11;;;;;;;121.28;34.97;;;5.30;78.60;;;;;;5095661;28;20422;-40
2021/01/06 08:34:52;;;;;;;168.80;39.67;;;5.30;78.60;;;;;;5067115;28;20059;-39
2021/01/06 08:37:25;;;;;;;124.05;37.13;;;5.30;78.70;;;;;;5075957;28;20369;-39
2021/01/06 08:39:55;;;;;;;115.10;32.88;;;5.30;78.70;;;;;;5074710;28;20051;-39
2021/01/06 08:42:44;;;;;;;117.38;34.50;;;5.20;78.80;;;;;;5074614;28;20463;-40
2021/01/06 08:45:32;;;;;;;131.13;34.03;;;5.20;79.00;;;;;;5080591;28;20402;-40
2021/01/06 08:48:21;;;;;;;233.00;38.60;;;5.20;79.10;;;;;;5089552;28;20126;-40
2021/01/06 08:50:48;;;;;;;135.30;39.92;;;5.30;79.20;;;;;;5080145;28;20051;-41
2021/01/06 08:53:15;;;;;;;141.52;47.25;;;5.20;79.20;;;;;;5091412;28;20469;-40
2021/01/06 08:55:59;;;;;;;159.20;38.05;;;5.20;79.40;;;;;;5093725;28;20517;-40
2021/01/06 08:58:40;;;;;;;111.03;37.85;;;5.30;80.10;;;;;;5089293;28;20028;-41
2021/01/06 09:01:19;;;;;;;123.75;33.45;;;5.30;79.80;;;;;;5073612;28;20048;-40
2021/01/06 09:04:01;;;;;;;149.38;47.17;;;5.30;79.70;;;;;;5072705;28;20334;-40
2021/01/06 09:06:27;;;;;;;125.82;36.72;;;5.40;79.70;;;;;;5073529;28;20033;-40
2021/01/06 09:09:38;;;;;;;138.82;35.75;;;5.40;79.80;;;;;;5073442;28;20107;-40
2021/01/06 09:12:40;;;;;;;77.57;27.13;;;5.40;79.50;;;;;;5056970;28;20046;-40
2021/01/06 09:15:15;;;;;;;132.75;30.67;;;5.40;79.60;;;;;;5094671;28;20032;-41
2021/01/06 09:18:09;;;;;;;172.23;38.15;;;5.50;79.60;;;;;;5095613;28;20024;-41
2021/01/06 09:20:50;;;;;;;126.75;35.90;;;5.50;79.50;;;;;;5084135;28;20048;-41
2021/01/06 09:23:18;;;;;;;106.32;31.05;;;5.50;79.50;;;;;;5094992;28;20020;-41
2021/01/06 09:25:44;;;;;;;92.88;33.58;;;5.50;79.60;;;;;;5095009;28;20063;-41
2021/01/06 09:28:13;;;;;;;81.78;30.38;;;5.50;79.60;;;;;;5095082;28;20070;-42
2021/01/06 09:30:39;;;;;;;112.68;36.65;;;5.60;79.70;;;;;;5094883;28;20124;-41
2021/01/06 09:33:20;;;;;;;93.38;30.75;;;5.50;79.50;;;;;;5095007;28;20077;-41
2021/01/06 09:35:47;;;;;;;85.15;28.05;;;5.60;79.40;;;;;;5094949;28;20043;-41
2021/01/06 09:38:19;;;;;;;110.28;37.90;;;5.60;79.30;;;;;;5094816;28;20425;-42
2021/01/06 09:40:45;;;;;;;101.88;34.08;;;5.60;79.40;;;;;;5094519;28;20032;-41
2021/01/06 09:43:38;;;;;;;90.00;32.30;;;5.60;79.40;;;;;;5086067;28;20039;-42
2021/01/06 09:46:33;;;;;;;90.75;32.20;;;5.60;79.30;;;;;;5088114;28;20032;-41
2021/01/06 09:49:21;;;;;;;93.93;33.50;;;5.70;79.40;;;;;;5059596;28;20048;-41
2021/01/06 09:51:51;;;;;;;63.38;25.75;;;5.70;79.40;;;;;;5091970;28;20062;-41
2021/01/06 09:54:17;;;;;;;123.53;45.03;;;5.70;79.50;;;;;;5092331;28;20042;-42
2021/01/06 09:56:44;;;;;;;185.82;62.55;;;5.70;79.60;;;;;;5093948;28;20108;-39
2021/01/06 09:59:17;;;;;;;144.25;42.10;;;5.70;79.50;;;;;;5093555;28;20059;-39
2021/01/06 10:01:50;;;;;;;131.77;40.08;;;5.80;79.40;;;;;;5073963;28;20036;-39
2021/01/06 10:04:20;;;;;;;99.78;36.17;;;5.80;79.40;;;;;;5074713;28;20024;-40
2021/01/06 10:06:49;;;;;;;99.55;36.50;;;5.80;79.30;;;;;;5093955;28;20072;-39
2021/01/06 10:09:35;;;;;;;88.40;31.23;;;5.90;79.30;;;;;;5093882;28;20208;-41
2021/01/06 10:12:28;;;;;;;111.22;43.90;;;5.90;79.20;;;;;;5094884;28;20445;-40
2021/01/06 10:15:06;;;;;;;96.00;37.88;;;5.90;79.10;;;;;;5093535;28;20085;-41
2021/01/06 10:17:38;;;;;;;189.30;43.33;;;5.90;79.00;;;;;;5092889;28;20151;-41
2021/01/06 10:20:55;;;;;;;97.82;39.45;;;5.90;78.80;;;;;;5096129;28;20056;-41
2021/01/06 10:23:30;;;;;;;106.97;47.20;;;5.90;78.80;;;;;;5053699;28;20154;-41
2021/01/06 10:26:21;;;;;;;122.28;48.88;;;5.90;78.90;;;;;;5063758;28;20029;-41
2021/01/06 10:28:50;;;;;;;127.38;45.33;;;5.90;78.80;;;;;;5077599;28;20093;-41
2021/01/06 10:31:18;;;;;;;101.38;36.30;;;5.90;78.80;;;;;;5094598;28;20120;-40
2021/01/06 10:34:19;;;;;;;150.07;53.10;;;5.90;78.80;;;;;;5094577;28;20020;-41
2021/01/06 10:37:03;;;;;;;113.78;47.58;;;5.90;78.80;;;;;;5095635;28;20030;-40
2021/01/06 10:39:34;;;;;;;131.75;51.65;;;5.90;78.70;;;;;;5094734;28;20030;-41
2021/01/06 10:42:03;;;;;;;101.70;44.53;;;5.90;78.60;;;;;;5094974;28;20059;-41
2021/01/06 10:44:48;;;;;;;146.43;43.28;;;5.90;78.60;;;;;;5094491;28;20020;-41
2021/01/06 10:47:31;;;;;;;119.85;40.13;;;5.90;78.60;;;;;;5095184;28;20055;-41
2021/01/06 10:50:03;;;;;;;172.90;62.00;;;5.80;78.40;;;;;;5095866;28;20025;-41
2021/01/06 10:52:59;;;;;;;155.13;52.25;;;5.90;78.60;;;;;;5095172;28;20031;-41
2021/01/06 10:55:45;;;;;;;84.63;30.40;;;5.90;78.80;;;;;;5063830;28;20065;-40
2021/01/06 10:58:52;;;;;;;219.90;52.97;;;5.90;78.80;;;;;;5097490;28;20384;-41
2021/01/06 11:01:35;;;;;;;104.15;34.92;;;5.80;78.70;;;;;;5096118;28;20182;-41
2021/01/06 11:04:41;;;;;;;122.05;36.53;;;5.80;78.80;;;;;;5088870;28;20028;-41
2021/01/06 11:07:30;;;;;;;78.40;25.33;;;5.80;78.90;;;;;;5056309;28;20085;-40
2021/01/06 11:10:16;;;;;;;190.50;43.95;;;5.80;78.90;;;;;;5082365;28;20089;-40
2021/01/06 11:12:53;;;;;;;105.70;37.30;;;5.90;79.00;;;;;;5096845;28;20028;-41
2021/01/06 11:15:28;;;;;;;102.10;34.42;;;5.90;78.80;;;;;;5094280;28;20031;-40
2021/01/06 11:18:32;;;;;;;112.68;35.78;;;5.90;78.80;;;;;;5092484;28;20081;-41
2021/01/06 11:21:16;;;;;;;111.78;31.10;;;5.90;78.80;;;;;;5094868;28;20055;-40
2021/01/06 11:23:44;;;;;;;118.57;30.65;;;5.90;79.00;;;;;;5095082;28;20024;-41
2021/01/06 11:26:30;;;;;;;101.13;32.38;;;5.90;79.10;;;;;;5095116;28;20027;-41
2021/01/06 11:29:45;;;;;;;86.50;29.38;;;5.90;79.20;;;;;;5094834;28;20341;-40
2021/01/06 11:32:25;;;;;;;153.82;38.05;;;5.90;79.10;;;;;;5093745;28;20040;-40
2021/01/06 11:35:06;;;;;;;118.45;36.80;;;5.90;79.00;;;;;;5094681;28;20069;-40
2021/01/06 11:37:37;;;;;;;134.45;32.85;;;5.90;78.80;;;;;;5095524;28;20028;-41
2021/01/06 11:40:07;;;;;;;104.30;33.05;;;5.90;78.80;;;;;;5095696;28;20032;-40
2021/01/06 11:43:10;;;;;;;106.13;37.10;;;5.90;78.80;;;;;;5095355;28;20404;-40
2021/01/06 11:45:46;;;;;;;131.15;48.20;;;5.90;78.80;;;;;;5095040;28;20054;-40
2021/01/06 11:48:35;;;;;;;96.15;33.67;;;5.90;78.90;;;;;;5095700;28;20357;-41
2021/01/06 11:51:22;;;;;;;85.80;30.83;;;5.90;79.00;;;;;;5096606;28;20055;-40
2021/01/06 11:54:12;;;;;;;76.45;24.40;;;5.90;79.10;;;;;;5095324;28;20067;-40
2021/01/06 11:56:47;;;;;;;114.13;33.53;;;5.90;79.10;;;;;;5094825;28;20020;-40
2021/01/06 11:59:39;;;;;;;138.70;48.97;;;5.90;79.10;;;;;;5094794;28;20501;-40
2021/01/06 12:02:19;;;;;;;164.82;41.53;;;5.90;79.00;;;;;;5095779;28;20036;-41
2021/01/06 12:05:04;;;;;;;96.80;37.80;;;5.90;79.10;;;;;;5090055;28;20141;-40
2021/01/06 12:07:56;;;;;;;127.63;41.00;;;5.90;79.10;;;;;;5095810;28;20062;-40
2021/01/06 12:10:27;;;;;;;96.85;25.55;;;5.90;79.00;;;;;;5086011;28;20016;-40
2021/01/06 12:13:05;;;;;;;116.90;28.33;;;5.90;78.80;;;;;;5085606;28;20051;-40
2021/01/06 12:15:33;;;;;;;100.95;24.30;;;5.90;78.70;;;;;;5075418;28;20036;-41
2021/01/06 12:18:03;;;;;;;98.97;30.52;;;5.90;78.80;;;;;;5075955;28;20116;-40
2021/01/06 12:20:35;;;;;;;88.07;31.63;;;5.90;78.90;;;;;;5087113;28;20092;-40
2021/01/06 12:23:22;;;;;;;156.40;59.85;;;5.90;79.10;;;;;;5075253;28;20041;-40
2021/01/06 12:25:53;;;;;;;125.72;34.25;;;5.90;79.20;;;;;;5077538;28;20029;-40
2021/01/06 12:28:34;;;;;;;;;;;5.90;79.10;;;;;;5073586;28;20070;-40
2021/01/06 12:31:08;;;;;;;77.88;26.80;;;5.90;79.10;;;;;;5091296;28;20280;-40
2021/01/06 12:33:36;;;;;;;181.35;61.78;;;5.90;79.10;;;;;;5088526;28;20024;-39
2021/01/06 12:36:17;;;;;;;121.20;45.30;;;5.90;79.20;;;;;;5103300;28;20081;-39
2021/01/06 12:38:44;;;;;;;112.57;41.03;;;6.00;79.10;;;;;;5097929;28;20047;-40
2021/01/06 12:41:19;;;;;;;114.65;36.13;;;6.00;79.10;;;;;;5110991;28;20027;-40
2021/01/06 12:44:05;;;;;;;120.88;46.60;;;6.00;79.00;;;;;;5108596;28;20242;-41
2021/01/06 12:46:51;;;;;;;105.45;38.70;;;6.10;78.90;;;;;;5091729;28;20040;-42
2021/01/06 12:49:42;;;;;;;99.45;38.20;;;6.10;79.00;;;;;;5075105;28;20063;-42
2021/01/06 12:52:33;;;;;;;104.07;44.22;;;6.10;78.90;;;;;;5072853;28;20119;-42
2021/01/06 12:55:04;;;;;;;89.03;35.78;;;6.10;78.70;;;;;;5073151;28;20412;-42
2021/01/06 12:57:43;;;;;;;88.38;31.27;;;6.10;78.80;;;;;;5074173;28;20033;-42
2021/01/06 13:00:26;;;;;;;69.07;29.08;;;6.10;79.10;;;;;;5085683;28;20441;-41
2021/01/06 13:03:06;;;;;;;83.38;36.22;;;6.00;79.20;;;;;;5092727;28;20031;-41
2021/01/06 13:05:32;;;;;;;64.78;25.30;;;6.10;79.50;;;;;;5081489;28;20024;-41
2021/01/06 13:08:00;;;;;;;65.72;27.50;;;6.10;79.60;;;;;;5094777;28;20075;-41
2021/01/06 13:10:34;;;;;;;72.95;28.58;;;6.10;79.70;;;;;;5094268;28;20518;-40
2021/01/06 13:13:52;;;;;;;83.13;35.38;;;6.10;79.70;;;;;;5093634;28;20024;-41
2021/01/06 13:16:31;;;;;;;81.00;34.78;;;6.10;79.90;;;;;;5070974;28;20105;-41
2021/01/06 13:18:57;;;;;;;136.95;39.53;;;6.20;79.90;;;;;;5090651;28;20094;-40